createdAt,value
2022-08-20T00:01:57.497Z,24.90
2022-08-20T00:04:25.253Z,24.75
2022-08-20T00:06:53.104Z,24.61
2022-08-20T00:09:20.731Z,24.86
2022-08-20T00:11:48.432Z,26.67
2022-08-20T00:14:16.091Z,28.10
2022-08-20T00:16:43.764Z,27.44
2022-08-20T00:19:11.507Z,26.55
2022-08-20T00:21:39.738Z,25.93
2022-08-20T00:24:07.492Z,25.48
2022-08-20T00:26:35.236Z,25.16
2022-08-20T00:29:04.520Z,24.90
2022-08-20T00:31:32.692Z,24.67
2022-08-20T00:34:00.416Z,24.44
2022-08-20T00:36:32.601Z,24.57
2022-08-20T00:39:00.942Z,26.35
2022-08-20T00:41:29.612Z,28.23
2022-08-20T00:44:18.755Z,29.23
2022-08-20T00:46:47.532Z,27.96
2022-08-20T00:49:19.118Z,26.89
2022-08-20T00:52:00.245Z,26.15
2022-08-20T00:54:35.514Z,25.58
2022-08-20T00:57:08.569Z,25.17
2022-08-20T00:59:39.983Z,24.82
2022-08-20T01:02:16.115Z,24.51
2022-08-20T01:04:49.815Z,24.24
2022-08-20T01:07:20.629Z,24.44
2022-08-20T01:09:58.487Z,26.25
2022-08-20T01:12:29.579Z,27.58
2022-08-20T01:14:59.523Z,26.72
2022-08-20T01:17:29.539Z,25.76
2022-08-20T01:20:12.202Z,25.10
2022-08-20T01:23:13.709Z,24.60
2022-08-20T01:25:53.781Z,24.18
2022-08-20T01:28:26.819Z,24.38
2022-08-20T01:30:55.054Z,26.27
2022-08-20T01:33:23.617Z,27.54
2022-08-20T01:35:52.743Z,26.69
2022-08-20T01:38:20.414Z,25.67
2022-08-20T01:41:11.417Z,24.94
2022-08-20T01:43:41.818Z,24.33
2022-08-20T01:46:10.806Z,24.33
2022-08-20T01:48:40.422Z,25.95
2022-08-20T01:51:17.288Z,27.20
2022-08-20T01:53:49.834Z,26.31
2022-08-20T01:56:23.550Z,25.31
2022-08-20T01:58:56.218Z,24.66
2022-08-20T02:01:46.759Z,24.63
2022-08-20T02:04:17.237Z,26.50
2022-08-20T02:06:56.627Z,27.71
2022-08-20T02:09:31.549Z,26.78
2022-08-20T02:12:00.550Z,25.80
2022-08-20T02:14:28.931Z,25.13
2022-08-20T02:16:58.488Z,24.68
2022-08-20T02:19:32.593Z,24.34
2022-08-20T02:22:04.503Z,24.48
2022-08-20T02:24:32.270Z,26.27
2022-08-20T02:27:00.151Z,27.62
2022-08-20T02:29:27.858Z,26.85
2022-08-20T02:32:24.351Z,25.86
2022-08-20T02:34:44.417Z,25.07
2022-08-20T02:37:16.803Z,24.57
2022-08-20T02:39:46.491Z,24.17
2022-08-20T02:42:14.430Z,24.24
2022-08-20T02:44:42.879Z,25.93
2022-08-20T02:47:10.521Z,27.23
2022-08-20T02:49:38.533Z,26.41
2022-08-20T02:52:06.311Z,25.42
2022-08-20T02:54:34.071Z,24.75
2022-08-20T02:57:03.308Z,24.28
2022-08-20T02:59:31.331Z,24.33
2022-08-20T03:02:00.512Z,26.00
2022-08-20T03:04:30.458Z,27.34
2022-08-20T03:06:58.997Z,26.57
2022-08-20T03:09:27.160Z,25.59
2022-08-20T03:11:54.862Z,24.91
2022-08-20T03:14:23.902Z,24.43
2022-08-20T03:16:52.238Z,24.03
2022-08-20T03:19:20.130Z,24.10
2022-08-20T03:21:47.839Z,25.81
2022-08-20T03:24:15.954Z,27.16
2022-08-20T03:26:43.981Z,26.41
2022-08-20T03:29:12.098Z,25.46
2022-08-20T03:31:40.835Z,24.81
2022-08-20T03:34:08.482Z,24.36
2022-08-20T03:36:36.175Z,24.42
2022-08-20T03:39:07.901Z,26.14
2022-08-20T03:41:35.555Z,27.40
2022-08-20T03:44:03.484Z,26.57
2022-08-20T03:46:31.166Z,25.55
2022-08-20T03:49:00.669Z,24.79
2022-08-20T03:51:30.474Z,24.24
2022-08-20T03:53:59.001Z,24.23
2022-08-20T03:56:27.913Z,25.73
2022-08-20T03:58:56.161Z,27.16
2022-08-20T04:01:46.411Z,26.32
2022-08-20T04:04:12.169Z,25.18
2022-08-20T04:06:42.536Z,24.50
2022-08-20T04:09:12.157Z,24.57
2022-08-20T04:11:41.225Z,26.24
2022-08-20T04:14:11.228Z,27.52
2022-08-20T04:16:40.524Z,26.68
2022-08-20T04:19:08.789Z,25.63
2022-08-20T04:21:36.968Z,24.92
2022-08-20T04:24:05.652Z,24.45
2022-08-20T04:26:36.411Z,24.53
2022-08-20T04:29:04.574Z,26.31
2022-08-20T04:31:35.278Z,27.72
2022-08-20T04:34:04.737Z,27.01
2022-08-20T04:36:32.438Z,26.15
2022-08-20T04:39:00.073Z,25.58
2022-08-20T04:41:28.016Z,25.21
2022-08-20T04:43:56.902Z,24.93
2022-08-20T04:46:28.934Z,24.69
2022-08-20T04:48:57.873Z,24.90
2022-08-20T04:51:25.622Z,26.74
2022-08-20T04:53:56.362Z,28.15
2022-08-20T04:56:27.114Z,27.48
2022-08-20T04:58:57.210Z,26.63
2022-08-20T05:01:26.305Z,26.05
2022-08-20T05:03:55.311Z,25.68
2022-08-20T05:06:26.770Z,25.42
2022-08-20T05:08:56.417Z,25.27
2022-08-20T05:11:34.584Z,25.48
2022-08-20T05:14:06.308Z,27.43
2022-08-20T05:16:40.713Z,28.83
2022-08-20T05:19:11.694Z,28.09
2022-08-20T05:21:40.527Z,27.28
2022-08-20T05:24:10.275Z,26.74
2022-08-20T05:26:38.685Z,26.32
2022-08-20T05:29:07.040Z,25.99
2022-08-20T05:31:35.624Z,25.80
2022-08-20T05:34:10.069Z,25.66
2022-08-20T05:36:42.921Z,25.50
2022-08-20T05:39:10.680Z,25.37
2022-08-20T05:41:39.170Z,25.26
2022-08-20T05:44:11.025Z,25.14
2022-08-20T05:46:43.550Z,25.31
2022-08-20T05:49:12.701Z,27.42
2022-08-20T05:51:40.869Z,29.48
2022-08-20T05:54:08.658Z,30.53
2022-08-20T05:56:37.294Z,29.57
2022-08-20T05:59:06.948Z,28.51
2022-08-20T06:01:37.039Z,27.79
2022-08-20T06:04:24.273Z,27.21
2022-08-20T06:06:54.792Z,26.71
2022-08-20T06:09:30.622Z,26.35
2022-08-20T06:12:06.267Z,26.07
2022-08-20T06:14:34.228Z,25.93
2022-08-20T06:17:04.176Z,25.85
2022-08-20T06:19:33.703Z,25.78
2022-08-20T06:22:08.650Z,25.72
2022-08-20T06:24:47.430Z,25.64
2022-08-20T06:27:16.382Z,25.54
2022-08-20T06:29:44.103Z,25.66
2022-08-20T06:32:11.751Z,27.88
2022-08-20T06:34:50.233Z,29.40
2022-08-20T06:37:31.203Z,28.84
2022-08-20T06:40:09.311Z,28.11
2022-08-20T06:42:41.651Z,27.68
2022-08-20T06:45:18.305Z,27.46
2022-08-20T06:47:47.680Z,27.34
2022-08-20T06:50:20.289Z,27.31
2022-08-20T06:52:51.902Z,27.26
2022-08-20T06:55:21.467Z,27.16
2022-08-20T06:57:57.113Z,27.07
2022-08-20T07:00:24.968Z,26.98
2022-08-20T07:02:52.789Z,26.93
2022-08-20T07:05:20.680Z,26.93
2022-08-20T07:07:51.224Z,26.97
2022-08-20T07:10:21.224Z,27.05
2022-08-20T07:12:50.495Z,27.13
2022-08-20T07:15:20.889Z,27.18
2022-08-20T07:18:01.718Z,27.25
2022-08-20T07:20:31.860Z,27.35
2022-08-20T07:23:00.775Z,27.43
2022-08-20T07:25:30.881Z,27.54
2022-08-20T07:28:23.317Z,27.64
2022-08-20T07:31:13.855Z,27.82
2022-08-20T07:33:44.709Z,28.05
2022-08-20T07:36:12.981Z,28.24
2022-08-20T07:38:40.911Z,28.36
2022-08-20T07:41:13.435Z,28.47
2022-08-20T07:43:43.312Z,28.53
2022-08-20T07:46:12.273Z,28.57
2022-08-20T07:48:42.310Z,28.56
2022-08-20T07:51:11.095Z,28.53
2022-08-20T07:53:40.838Z,28.51
2022-08-20T07:56:11.737Z,28.60
2022-08-20T07:58:50.288Z,28.72
2022-08-20T08:01:20.916Z,28.87
2022-08-20T08:03:50.426Z,29.03
2022-08-20T08:06:29.347Z,29.20
2022-08-20T08:09:05.016Z,29.43
2022-08-20T08:11:35.471Z,29.64
2022-08-20T08:14:06.404Z,29.82
2022-08-20T08:16:35.267Z,30.03
2022-08-20T08:19:06.681Z,30.22
2022-08-20T08:21:34.665Z,30.38
2022-08-20T08:24:02.765Z,30.43
2022-08-20T08:26:30.484Z,30.54
2022-08-20T08:28:58.509Z,30.64
2022-08-20T08:31:26.768Z,30.72
2022-08-20T08:33:55.640Z,30.83
2022-08-20T08:36:25.375Z,31.07
2022-08-20T08:38:54.587Z,31.39
2022-08-20T08:41:31.953Z,31.64
2022-08-20T08:44:08.177Z,32.15
2022-08-20T08:46:40.840Z,32.47
2022-08-20T08:49:13.362Z,32.72
2022-08-20T08:51:58.853Z,32.99
2022-08-20T08:54:29.791Z,33.21
2022-08-20T08:56:59.674Z,33.32
2022-08-20T08:59:58.164Z,33.48
2022-08-20T09:02:21.514Z,33.75
2022-08-20T09:04:51.592Z,33.96
2022-08-20T09:07:20.430Z,34.10
2022-08-20T09:09:48.149Z,34.43
2022-08-20T09:12:19.769Z,35.07
2022-08-20T09:14:51.658Z,35.83
2022-08-20T09:17:23.200Z,36.11
2022-08-20T09:19:52.459Z,35.99
2022-08-20T09:22:23.489Z,35.84
2022-08-20T09:24:51.196Z,35.54
2022-08-20T09:27:18.916Z,35.33
2022-08-20T09:29:49.319Z,35.48
2022-08-20T09:32:20.892Z,36.36
2022-08-20T09:34:57.085Z,37.47
2022-08-20T09:37:27.322Z,38.56
2022-08-20T09:39:55.403Z,39.72
2022-08-20T09:42:25.977Z,40.62
2022-08-20T09:44:54.827Z,41.35
2022-08-20T09:47:22.563Z,42.09
2022-08-20T09:49:50.311Z,42.95
2022-08-20T09:52:25.406Z,43.64
2022-08-20T09:54:56.970Z,44.08
2022-08-20T09:57:26.599Z,44.55
2022-08-20T09:59:58.730Z,45.18
2022-08-20T10:02:26.737Z,45.85
2022-08-20T10:04:54.544Z,46.40
2022-08-20T10:07:25.190Z,46.93
2022-08-20T10:09:52.939Z,47.50
2022-08-20T10:12:20.593Z,48.15
2022-08-20T10:14:48.192Z,48.76
2022-08-20T10:17:15.936Z,49.32
2022-08-20T10:19:43.904Z,49.78
2022-08-20T10:22:12.057Z,50.19
2022-08-20T10:24:40.004Z,50.55
2022-08-20T10:27:07.727Z,51.09
2022-08-20T10:29:35.771Z,51.40
2022-08-20T10:32:14.205Z,51.74
2022-08-20T10:34:44.309Z,51.86
2022-08-20T10:37:24.187Z,51.82
2022-08-20T10:39:53.125Z,51.81
2022-08-20T10:42:21.120Z,51.81
2022-08-20T10:44:48.887Z,51.60
2022-08-20T10:47:19.209Z,51.78
2022-08-20T10:49:48.916Z,52.19
2022-08-20T10:52:16.713Z,52.49
2022-08-20T10:54:44.821Z,52.68
2022-08-20T10:57:27.718Z,52.57
2022-08-20T10:59:57.500Z,52.44
2022-08-20T11:02:26.037Z,52.34
2022-08-20T11:04:54.387Z,52.15
2022-08-20T11:07:53.522Z,51.56
2022-08-20T11:10:14.239Z,50.83
2022-08-20T11:12:44.834Z,50.68
2022-08-20T11:15:15.244Z,50.91
2022-08-20T11:17:44.290Z,50.99
2022-08-20T11:20:14.506Z,51.08
2022-08-20T11:22:42.307Z,51.24
2022-08-20T11:25:10.779Z,51.23
2022-08-20T11:27:42.007Z,51.31
2022-08-20T11:30:12.829Z,51.46
2022-08-20T11:32:40.886Z,51.76
2022-08-20T11:35:38.458Z,51.85
2022-08-20T11:37:58.856Z,51.87
2022-08-20T11:40:28.455Z,51.68
2022-08-20T11:43:14.324Z,51.51
2022-08-20T11:45:45.182Z,51.27
2022-08-20T11:48:12.861Z,51.25
2022-08-20T11:50:40.631Z,51.35
2022-08-20T11:53:08.423Z,51.22
2022-08-20T11:55:37.176Z,51.07
2022-08-20T11:58:07.148Z,50.69
2022-08-20T12:00:37.160Z,50.23
2022-08-20T12:03:08.852Z,49.88
2022-08-20T12:05:38.696Z,49.63
2022-08-20T12:08:06.446Z,49.53
2022-08-20T12:10:34.503Z,48.95
2022-08-20T12:13:02.728Z,48.01
2022-08-20T12:15:33.526Z,47.77
2022-08-20T12:18:07.802Z,47.78
2022-08-20T12:20:37.099Z,47.77
2022-08-20T12:23:04.799Z,47.85
2022-08-20T12:25:33.455Z,47.68
2022-08-20T12:28:01.198Z,47.09
2022-08-20T12:30:28.862Z,46.52
2022-08-20T12:32:56.717Z,46.24
2022-08-20T12:35:24.509Z,46.27
2022-08-20T12:37:52.716Z,46.35
2022-08-20T12:40:30.637Z,46.48
2022-08-20T12:43:02.425Z,46.46
2022-08-20T12:45:31.616Z,46.37
2022-08-20T12:48:06.595Z,46.37
2022-08-20T12:50:36.220Z,46.58
2022-08-20T12:53:04.524Z,46.68
2022-08-20T12:55:32.798Z,46.68
2022-08-20T12:58:02.545Z,46.49
2022-08-20T13:00:32.663Z,46.07
2022-08-20T13:03:02.280Z,45.87
2022-08-20T13:05:30.931Z,45.78
2022-08-20T13:07:59.118Z,45.69
2022-08-20T13:10:31.076Z,45.49
2022-08-20T13:13:02.716Z,45.39
2022-08-20T13:15:32.166Z,45.33
2022-08-20T13:18:02.575Z,45.11
2022-08-20T13:20:33.989Z,44.96
2022-08-20T13:23:04.587Z,44.89
2022-08-20T13:25:33.743Z,44.55
2022-08-20T13:28:04.569Z,44.17
2022-08-20T13:30:35.174Z,43.83
2022-08-20T13:33:03.632Z,43.65
2022-08-20T13:35:31.437Z,43.57
2022-08-20T13:37:59.152Z,43.51
2022-08-20T13:50:25.621Z,41.57
2022-08-20T13:52:53.879Z,41.33
2022-08-20T13:55:23.395Z,40.90
2022-08-20T13:57:51.900Z,40.31
2022-08-20T14:00:31.496Z,39.79
2022-08-20T14:03:01.336Z,39.40
2022-08-20T14:05:30.055Z,39.05
2022-08-20T14:08:10.989Z,38.87
2022-08-20T14:10:38.982Z,38.86
2022-08-20T14:13:07.073Z,38.88
2022-08-20T14:15:36.366Z,38.89
2022-08-20T14:18:04.715Z,38.84
2022-08-20T14:20:34.519Z,38.81
2022-08-20T14:23:06.591Z,38.81
2022-08-20T14:25:35.401Z,38.77
2022-08-20T14:28:18.550Z,38.72
2022-08-20T14:30:53.413Z,38.67
2022-08-20T14:33:24.805Z,38.59
2022-08-20T14:35:53.201Z,38.49
2022-08-20T14:38:20.878Z,38.44
2022-08-20T14:40:50.628Z,38.29
2022-08-20T14:43:18.655Z,38.06
2022-08-20T14:45:46.288Z,37.88
2022-08-20T14:48:14.999Z,37.76
2022-08-20T14:50:43.166Z,37.64
2022-08-20T14:53:10.849Z,37.55
2022-08-20T14:55:38.661Z,37.34
2022-08-20T14:58:08.296Z,37.15
2022-08-20T15:00:36.449Z,37.02
2022-08-20T15:03:04.264Z,36.90
2022-08-20T15:05:33.298Z,36.81
2022-08-20T15:08:03.097Z,36.75
2022-08-20T15:10:33.598Z,36.63
2022-08-20T15:13:01.431Z,36.45
2022-08-20T15:15:29.610Z,36.29
2022-08-20T15:18:00.335Z,36.14
2022-08-20T15:20:31.495Z,36.06
2022-08-20T15:22:59.776Z,36.05
2022-08-20T15:25:36.681Z,36.00
2022-08-20T15:28:08.893Z,35.89
2022-08-20T15:30:39.027Z,35.78
2022-08-20T15:33:07.636Z,35.65
2022-08-20T15:35:35.460Z,35.59
2022-08-20T15:38:03.256Z,35.55
2022-08-20T15:40:33.394Z,35.47
2022-08-20T15:43:03.093Z,35.36
2022-08-20T15:45:32.368Z,35.19
2022-08-20T15:48:18.053Z,34.97
2022-08-20T15:51:07.007Z,34.75
2022-08-20T15:54:08.156Z,34.57
2022-08-20T15:57:01.553Z,34.44
2022-08-20T15:59:55.117Z,34.37
2022-08-20T16:02:38.338Z,34.30
2022-08-20T16:05:21.599Z,34.20
2022-08-20T16:08:00.994Z,34.07
2022-08-20T16:10:43.887Z,33.96
2022-08-20T16:13:37.284Z,33.83
2022-08-20T16:16:08.576Z,33.70
2022-08-20T16:18:38.604Z,33.57
2022-08-20T16:21:10.531Z,33.44
2022-08-20T16:23:39.496Z,33.34
2022-08-20T16:31:45.292Z,32.87
2022-08-20T16:34:32.479Z,32.74
2022-08-20T16:37:15.765Z,32.57
2022-08-20T16:39:55.826Z,32.39
2022-08-20T16:42:25.951Z,32.21
2022-08-20T16:44:55.522Z,32.08
2022-08-20T16:47:32.226Z,31.93
2022-08-20T16:50:02.136Z,31.77
2022-08-20T16:52:30.123Z,31.60
2022-08-20T16:54:58.275Z,31.43
2022-08-20T16:57:28.168Z,31.27
2022-08-20T17:00:05.237Z,31.10
2022-08-20T17:02:33.027Z,30.92
2022-08-20T17:05:02.477Z,30.76
2022-08-20T17:07:55.922Z,30.59
2022-08-20T17:10:29.917Z,30.41
2022-08-20T17:13:17.735Z,30.26
2022-08-20T17:15:57.099Z,30.08
2022-08-20T17:18:26.154Z,29.90
2022-08-20T17:21:00.779Z,29.75
2022-08-20T17:23:29.933Z,29.61
2022-08-20T17:26:02.880Z,29.46
2022-08-20T17:28:35.412Z,29.32
2022-08-20T17:31:03.535Z,29.20
2022-08-20T18:10:00.963Z,27.23
2022-08-20T18:12:39.076Z,27.13
2022-08-20T18:15:09.582Z,27.03
2022-08-20T18:17:59.048Z,26.94
2022-08-20T18:20:48.419Z,26.83
2022-08-20T18:23:31.884Z,26.71
2022-08-20T18:26:13.326Z,26.60
2022-08-20T18:28:48.666Z,26.49
2022-08-20T18:31:42.757Z,26.40
2022-08-20T18:34:20.790Z,26.31
2022-08-20T18:37:01.466Z,26.23
2022-08-20T18:39:42.135Z,26.18
2022-08-20T18:42:25.455Z,26.10
2022-08-20T18:44:55.547Z,26.03
2022-08-20T18:47:32.733Z,25.97
2022-08-20T18:50:16.782Z,25.89
2022-08-20T18:52:51.200Z,25.84
2022-08-20T18:55:41.571Z,25.77
2022-08-20T18:58:13.387Z,25.70
2022-08-20T19:00:49.426Z,25.65
2022-08-20T19:03:40.042Z,25.59
2022-08-20T19:06:24.871Z,25.53
2022-08-20T19:08:59.291Z,25.46
2022-08-20T19:11:58.059Z,25.40
2022-08-20T19:14:43.631Z,25.33
2022-08-20T19:17:24.060Z,25.27
2022-08-20T19:20:04.396Z,25.21
2022-08-20T19:22:34.347Z,25.14
2022-08-20T19:25:02.050Z,25.08
2022-08-20T19:27:30.358Z,25.01
2022-08-20T19:29:58.451Z,24.95
2022-08-20T19:32:29.814Z,24.88
2022-08-20T19:35:04.251Z,24.82
2022-08-20T19:37:49.662Z,24.76
2022-08-20T19:40:33.131Z,24.69
2022-08-20T19:43:14.035Z,24.64
2022-08-20T19:45:48.085Z,24.60
2022-08-20T19:48:53.889Z,24.57
2022-08-20T19:51:52.131Z,24.53
2022-08-20T19:54:26.011Z,24.47
2022-08-20T19:56:59.136Z,24.41
2022-08-20T19:59:28.417Z,24.75
2022-08-20T20:02:00.752Z,26.66
2022-08-20T20:04:37.334Z,28.31
2022-08-20T20:07:16.779Z,28.77
2022-08-20T20:09:45.578Z,27.81
2022-08-20T20:12:20.860Z,26.95
2022-08-20T20:14:53.385Z,26.34
2022-08-20T20:17:25.967Z,25.92
2022-08-20T20:20:00.130Z,25.57
2022-08-20T20:22:46.732Z,25.30
2022-08-20T20:25:17.057Z,25.04
2022-08-20T20:27:51.044Z,24.84
2022-08-20T20:30:33.530Z,24.66
2022-08-20T20:33:16.594Z,24.47
2022-08-20T20:35:45.906Z,24.29
2022-08-20T20:38:26.312Z,24.49
2022-08-20T20:40:58.133Z,26.44
2022-08-20T20:43:46.086Z,27.84
2022-08-20T20:46:21.182Z,26.98
2022-08-20T20:48:53.048Z,26.08
2022-08-20T20:51:29.671Z,25.48
2022-08-20T20:54:01.732Z,25.06
2022-08-20T20:56:36.554Z,24.75
2022-08-20T20:59:07.323Z,24.47
2022-08-20T21:01:48.353Z,24.22
2022-08-20T21:04:21.307Z,24.44
2022-08-20T21:06:51.304Z,26.30
2022-08-20T21:09:19.759Z,27.63
2022-08-20T21:11:48.099Z,26.82
2022-08-20T21:14:16.547Z,25.85
2022-08-20T21:16:44.393Z,25.15
2022-08-20T21:19:12.851Z,24.68
2022-08-20T21:21:41.346Z,24.32
2022-08-20T21:24:09.206Z,24.01
2022-08-20T21:26:37.928Z,24.12
2022-08-20T21:29:09.201Z,25.83
2022-08-20T21:31:43.557Z,27.17
2022-08-20T21:34:12.852Z,26.34
2022-08-20T21:36:40.763Z,25.37
2022-08-20T21:39:08.974Z,24.73
2022-08-20T21:41:37.498Z,24.26
2022-08-20T21:44:32.230Z,23.90
2022-08-20T21:47:01.170Z,24.14
2022-08-20T21:49:30.983Z,25.94
2022-08-20T21:51:59.382Z,27.19
2022-08-20T21:54:27.421Z,26.28
2022-08-20T21:57:08.388Z,25.22
2022-08-20T21:59:38.269Z,24.42
2022-08-20T22:02:06.357Z,23.91
2022-08-20T22:04:35.686Z,23.89
2022-08-20T22:07:04.682Z,25.52
2022-08-20T22:09:36.470Z,26.88
2022-08-20T22:12:06.625Z,26.03
2022-08-20T22:14:34.334Z,24.96
2022-08-20T22:17:02.096Z,24.23
2022-08-20T22:19:29.825Z,23.74
2022-08-20T22:21:57.806Z,23.64
2022-08-20T22:24:27.422Z,25.61
2022-08-20T22:26:55.638Z,26.89
2022-08-20T22:29:24.104Z,26.14
2022-08-20T22:31:52.338Z,25.17
2022-08-20T22:34:20.864Z,24.49
2022-08-20T22:36:49.331Z,24.02
2022-08-20T22:39:17.039Z,24.04
2022-08-20T22:41:44.740Z,25.70
2022-08-20T22:44:12.410Z,27.05
2022-08-20T22:46:47.098Z,26.31
2022-08-20T22:49:20.717Z,25.31
2022-08-20T22:51:48.362Z,24.64
2022-08-20T22:54:21.834Z,24.19
2022-08-20T22:56:50.995Z,23.87
2022-08-20T22:59:19.515Z,24.00
2022-08-20T23:01:48.004Z,25.71
2022-08-20T23:04:28.973Z,27.09
2022-08-20T23:06:57.828Z,26.23
2022-08-20T23:09:26.619Z,25.28
2022-08-20T23:11:54.669Z,24.64
2022-08-20T23:14:22.537Z,24.16
2022-08-20T23:17:08.091Z,24.20
2022-08-20T23:19:39.032Z,26.07
2022-08-20T23:22:07.328Z,27.32
2022-08-20T23:24:35.659Z,26.47
2022-08-20T23:27:05.738Z,25.47
2022-08-20T23:29:33.710Z,24.77
2022-08-20T23:32:02.243Z,24.31
2022-08-20T23:34:29.985Z,23.97
2022-08-20T23:36:57.896Z,24.01
2022-08-20T23:39:26.540Z,25.72
2022-08-20T23:41:55.859Z,27.08
2022-08-20T23:44:26.210Z,26.26
2022-08-20T23:46:58.263Z,25.24
2022-08-20T23:49:27.178Z,24.53
2022-08-20T23:51:55.833Z,24.04
2022-08-20T23:54:23.919Z,24.04
2022-08-20T23:56:51.738Z,25.67
2022-08-20T23:59:25.375Z,26.96
